Terminal Aerodrome Forecast
Issued by NWS Shreveport, LA

Home | Current Version | Previous Version | Text Only | Print | Product List | Glossary On
Versions: 1 2 3 4 5 6 7 8 9 10 11 12
792
FTUS44 KSHV 052340
TAFGGG
TAF
KGGG 052340Z 0600/0624 12006KT P6SM SKC
     FM060500 15004KT P6SM BKN100
     FM061500 15005KT 6SM -RA BR OVC035
     FM062200 07004KT P6SM FEW250=

USA.gov is the U.S. government's official web portal to all federal, state and local government web resources and services.